Time;durP1;ratioP1;P1;durP2;ratioP2;P2;SDS_P1;SDS_P2;PMS_P1;PMS_P2;Temp;Humidity;BMP_temperature;BMP_pressure;BME280_temperature;BME280_humidity;BME280_pressure;Samples;Min_cycle;Max_cycle;Signal;HPM_P1;HPM_P2
2021/12/03 00:00:00;;;;;;;9.48;4.00;;;;;;;-8.91;90.63;98955.09;5053390;28;20037;-74
2021/12/03 00:02:26;;;;;;;8.13;4.00;;;;;;;-8.92;90.56;98953.44;5021470;28;20038;-74
2021/12/03 00:04:52;;;;;;;9.68;4.13;;;;;;;-8.94;90.41;98958.97;5052702;28;20041;-74
2021/12/03 00:07:18;;;;;;;13.40;5.10;;;;;;;-8.95;90.16;98967.13;5051674;28;20044;-74
2021/12/03 00:09:43;;;;;;;12.98;6.22;;;;;;;-8.98;90.47;98965.69;5052997;28;20047;-73
2021/12/03 00:12:09;;;;;;;10.68;5.10;;;;;;;-8.99;90.43;98956.09;5052797;28;20041;-73
2021/12/03 00:14:35;;;;;;;11.88;4.45;;;;;;;-9.02;90.51;98959.13;5052770;28;20033;-73
2021/12/03 00:17:02;;;;;;;8.48;3.85;;;;;;;-9.03;90.37;98962.78;5034820;28;20067;-73
2021/12/03 00:19:28;;;;;;;9.93;4.40;;;;;;;-9.04;90.36;98963.78;5067829;28;20041;-73
2021/12/03 00:21:54;;;;;;;12.98;4.68;;;;;;;-9.05;90.49;98964.81;5051089;28;20033;-73
2021/12/03 00:24:20;;;;;;;12.38;4.40;;;;;;;-9.06;90.42;98965.84;5052591;28;20055;-73
2021/12/03 00:26:46;;;;;;;11.98;4.95;;;;;;;-9.06;90.47;98975.63;5051752;28;20053;-73
2021/12/03 00:29:11;;;;;;;8.38;4.70;;;;;;;-9.07;90.49;98972.16;5051592;28;20033;-73
2021/12/03 00:31:37;;;;;;;12.07;4.90;;;;;;;-9.09;90.28;98978.69;5067737;28;20037;-73
2021/12/03 00:34:03;;;;;;;10.57;4.43;;;;;;;-9.12;90.43;98978.06;5051724;28;20478;-73
2021/12/03 00:36:29;;;;;;;11.40;4.82;;;;;;;-9.14;90.51;98974.81;5052473;28;20048;-73
2021/12/03 00:38:58;;;;;;;11.05;4.68;;;;;;;-9.14;90.40;98974.81;5052725;28;20032;-73
2021/12/03 00:41:25;;;;;;;8.65;4.53;;;;;;;-9.16;90.35;98966.22;5050402;28;20060;-73
2021/12/03 00:43:52;;;;;;;12.85;5.50;;;;;;;-9.18;90.51;98964.75;5050785;28;20033;-73
2021/12/03 00:46:19;;;;;;;12.45;4.95;;;;;;;-9.20;90.49;98969.44;5052154;28;20041;-74
2021/12/03 00:48:47;;;;;;;11.32;5.47;;;;;;;-9.21;90.53;98970.44;5048572;28;20033;-74
2021/12/03 00:51:14;;;;;;;9.38;4.05;;;;;;;-9.23;90.51;98961.84;5051239;28;20103;-74
2021/12/03 00:53:39;;;;;;;11.93;4.93;;;;;;;-9.24;90.49;98961.03;5050939;28;20043;-74
2021/12/03 00:56:07;;;;;;;13.32;5.93;;;;;;;-9.24;90.57;98973.50;5052465;28;20139;-74
2021/12/03 00:58:32;;;;;;;12.68;5.30;;;;;;;-9.24;90.62;98976.16;5050644;28;20044;-73
2021/12/03 01:00:58;;;;;;;15.43;5.30;;;;;;;-9.24;90.52;98979.63;5032570;28;20411;-75
2021/12/03 01:03:24;;;;;;;13.15;4.95;;;;;;;-9.23;90.63;98977.78;5067355;28;20041;-75
2021/12/03 01:05:50;;;;;;;11.07;5.57;;;;;;;-9.23;90.73;98988.41;5052016;28;20415;-75
2021/12/03 01:08:16;;;;;;;10.65;4.95;;;;;;;-9.23;90.71;98977.78;5067138;28;20055;-75
2021/12/03 01:10:42;;;;;;;14.20;5.18;;;;;;;-9.22;90.75;98976.78;5066995;28;20033;-73
2021/12/03 01:13:07;;;;;;;9.32;4.32;;;;;;;-9.24;90.67;98986.78;5067718;28;20045;-75
2021/12/03 01:15:36;;;;;;;16.77;5.35;;;;;;;-9.24;90.78;98989.44;5048533;28;20464;-75
2021/12/03 01:18:04;;;;;;;10.50;4.15;;;;;;;-9.23;90.76;98989.22;5051386;28;20048;-74
2021/12/03 01:20:31;;;;;;;11.63;4.63;;;;;;;-9.23;90.90;98991.88;5050024;28;20037;-74
2021/12/03 01:22:57;;;;;;;14.77;4.70;;;;;;;-9.24;90.76;98981.47;5050099;28;20037;-75
2021/12/03 01:25:24;;;;;;;8.88;4.43;;;;;;;-9.25;90.81;98996.56;5047443;28;20033;-74
2021/12/03 01:27:50;;;;;;;10.68;4.45;;;;;;;-9.27;90.83;99000.44;5050328;28;20045;-72
2021/12/03 01:30:19;;;;;;;19.27;5.97;;;;;;;-9.33;90.84;99003.88;5050228;28;20032;-72
2021/12/03 01:32:45;;;;;;;8.45;4.40;;;;;;;-9.34;90.76;99002.25;5066234;28;20032;-73
2021/12/03 01:35:13;;;;;;;14.25;4.80;;;;;;;-9.34;91.23;99005.72;5051686;28;20083;-73
2021/12/03 01:37:40;;;;;;;7.88;4.72;;;;;;;-9.37;90.85;99002.59;5051408;28;20049;-73
2021/12/03 01:40:08;;;;;;;11.30;4.80;;;;;;;-9.39;90.91;99002.81;5049845;28;20067;-73
2021/12/03 01:42:34;;;;;;;10.80;5.53;;;;;;;-9.42;90.85;99006.66;5043169;28;20407;-73
2021/12/03 01:45:00;;;;;;;10.52;4.80;;;;;;;-9.42;90.83;99011.97;5066784;28;20029;-73
2021/12/03 01:47:25;;;;;;;8.32;4.03;;;;;;;-9.45;90.92;99014.22;5049747;28;20048;-73
2021/12/03 01:49:51;;;;;;;10.15;4.90;;;;;;;-9.43;90.57;99020.97;5051163;28;20036;-73
2021/12/03 01:52:16;;;;;;;10.68;4.63;;;;;;;-9.40;90.84;99024.25;5082613;28;20091;-73
2021/12/03 01:54:42;;;;;;;8.63;4.30;;;;;;;-9.40;90.95;99024.25;5066210;28;20033;-73
2021/12/03 01:57:08;;;;;;;11.32;5.05;;;;;;;-9.39;90.88;99025.88;5049429;28;20036;-73
2021/12/03 01:59:33;;;;;;;8.07;3.78;;;;;;;-9.37;91.05;99019.41;5050909;28;20094;-73
2021/12/03 02:01:59;;;;;;;10.48;5.65;;;;;;;-9.34;90.89;99024.31;5050912;28;20517;-73
2021/12/03 02:04:25;;;;;;;9.25;4.70;;;;;;;-9.33;90.87;99023.31;5049818;28;20072;-73
2021/12/03 02:06:51;;;;;;;10.88;4.00;;;;;;;-9.32;90.85;99026.78;5049835;28;20410;-73
2021/12/03 02:09:16;;;;;;;5.72;3.42;;;;;;;-9.31;90.92;99028.41;5051070;28;20135;-73
2021/12/03 02:11:42;;;;;;;7.68;4.15;;;;;;;-9.30;90.90;99022.91;5050672;28;20040;-73
2021/12/03 02:14:08;;;;;;;7.65;3.80;;;;;;;-9.28;90.86;99017.41;5066034;28;20049;-73
2021/12/03 02:16:34;;;;;;;7.93;3.30;;;;;;;-9.24;90.75;99016.81;5034468;28;20045;-73
2021/12/03 02:19:00;;;;;;;10.38;4.45;;;;;;;-9.22;90.64;99021.94;5050704;28;20051;-73
2021/12/03 02:21:26;;;;;;;7.95;3.80;;;;;;;-9.23;90.59;99026.41;5050772;28;20102;-73
2021/12/03 02:23:52;;;;;;;6.32;3.50;;;;;;;-9.22;90.61;99027.25;5032885;28;20068;-73
2021/12/03 02:26:18;;;;;;;7.82;3.65;;;;;;;-9.20;90.37;99028.72;5050351;28;20048;-73
2021/12/03 02:28:46;;;;;;;5.80;3.25;;;;;;;-9.19;90.29;99025.03;5050650;28;20520;-73
2021/12/03 02:31:14;;;;;;;5.68;4.18;;;;;;;-9.20;90.37;99019.91;5016285;28;20526;-73
2021/12/03 02:33:39;;;;;;;5.47;3.55;;;;;;;-9.20;90.24;99019.91;5048712;28;20703;-74
2021/12/03 02:36:05;;;;;;;8.85;4.00;;;;;;;-9.18;89.94;99017.91;5050544;28;20135;-73
2021/12/03 02:38:31;;;;;;;6.35;4.00;;;;;;;-9.17;89.83;99028.31;5049202;28;20033;-74
2021/12/03 02:40:58;;;;;;;7.45;3.83;;;;;;;-9.16;89.50;99031.78;5050460;28;20091;-74
2021/12/03 02:43:24;;;;;;;5.53;2.85;;;;;;;-9.16;89.36;99029.13;5049930;28;20408;-74
2021/12/03 02:45:51;;;;;;;7.88;3.47;;;;;;;-9.18;89.50;99039.16;5066015;28;20128;-74
2021/12/03 02:48:17;;;;;;;6.43;3.83;;;;;;;-9.19;89.49;99048.94;5051174;28;20045;-73
2021/12/03 02:50:43;;;;;;;3.95;2.78;;;;;;;-9.20;89.48;99041.16;5054589;28;20035;-74
2021/12/03 02:53:09;;;;;;;4.72;2.10;;;;;;;-9.20;89.33;99051.78;5052631;28;20029;-74
2021/12/03 02:55:35;;;;;;;6.85;3.25;;;;;;;-9.23;89.24;99038.88;5036396;28;20098;-74
2021/12/03 02:58:01;;;;;;;4.95;2.35;;;;;;;-9.26;89.29;99037.44;5054898;28;20094;-74
2021/12/03 03:00:27;;;;;;;3.47;2.45;;;;;;;-9.26;89.21;99036.63;5069503;28;20033;-74
2021/12/03 03:02:53;;;;;;;1.67;1.40;;;;;;;-9.26;89.12;99044.59;5053807;28;20039;-74
2021/12/03 03:05:20;;;;;;;4.45;2.58;;;;;;;-9.27;89.17;99045.59;5044258;28;20037;-74
2021/12/03 03:07:46;;;;;;;5.30;2.90;;;;;;;-9.28;89.06;99046.63;5046647;28;20072;-75
2021/12/03 03:10:15;;;;;;;3.05;2.55;;;;;;;-9.30;89.23;99052.13;5053210;28;20040;-74
2021/12/03 03:12:42;;;;;;;4.22;2.95;;;;;;;-9.31;89.25;99047.00;5053294;28;20052;-75
2021/12/03 03:15:09;;;;;;;6.88;3.00;;;;;;;-9.30;89.17;99046.81;5060501;28;20095;-74
2021/12/03 03:17:36;;;;;;;5.45;2.70;;;;;;;-9.32;89.26;99032.91;5027854;28;20124;-75
2021/12/03 03:20:03;;;;;;;4.30;2.83;;;;;;;-9.33;89.34;99043.72;5052544;28;20418;-74
2021/12/03 03:22:28;;;;;;;2.78;1.90;;;;;;;-9.33;89.13;99030.44;5035028;28;20546;-74
2021/12/03 03:24:59;;;;;;;4.63;2.70;;;;;;;-9.34;89.02;99037.59;5051986;28;20131;-74
2021/12/03 03:27:26;;;;;;;3.58;2.33;;;;;;;-9.31;89.15;99036.38;5035773;28;20041;-74
2021/12/03 03:29:53;;;;;;;5.25;2.50;;;;;;;-9.32;89.08;99029.44;5052777;28;20045;-74
2021/12/03 03:32:20;;;;;;;5.13;2.20;;;;;;;-9.35;88.96;99021.84;5035881;28;20037;-74
2021/12/03 03:34:46;;;;;;;4.65;2.70;;;;;;;-9.37;89.12;99026.50;5052583;28;20083;-74
2021/12/03 03:37:13;;;;;;;6.55;2.85;;;;;;;-9.36;89.15;99025.53;5053603;28;20033;-74
2021/12/03 03:39:38;;;;;;;4.00;1.83;;;;;;;-9.35;89.07;99009.41;5052413;28;20089;-74
2021/12/03 03:42:05;;;;;;;3.83;2.08;;;;;;;-9.36;89.05;99012.25;5053146;28;20044;-75
2021/12/03 03:44:31;;;;;;;3.58;2.15;;;;;;;-9.35;89.04;99003.25;5053303;28;20503;-74
2021/12/03 03:46:57;;;;;;;3.80;2.17;;;;;;;-9.33;89.11;98999.41;5053077;28;20170;-74
2021/12/03 03:49:24;;;;;;;3.45;1.83;;;;;;;-9.33;89.10;98998.56;5053230;28;20407;-74
2021/12/03 03:51:50;;;;;;;3.28;2.13;;;;;;;-9.32;89.18;99005.53;5065375;28;20029;-74
2021/12/03 03:54:16;;;;;;;3.67;2.05;;;;;;;-9.35;89.17;99009.41;5051827;28;20032;-74
2021/12/03 03:57:01;;;;;;;3.90;2.65;;;;;;;-9.34;89.20;99010.22;5066080;28;20076;-74
2021/12/03 03:59:27;;;;;;;3.13;2.40;;;;;;;-9.32;89.29;99018.81;5052085;28;20041;-74
2021/12/03 04:01:53;;;;;;;5.30;2.38;;;;;;;-9.32;89.53;99011.66;5067589;28;20029;-73
2021/12/03 04:04:21;;;;;;;4.25;2.20;;;;;;;-9.31;89.43;99009.81;5051392;28;20037;-73
2021/12/03 04:06:47;;;;;;;4.20;2.70;;;;;;;-9.29;89.58;99011.28;5051579;28;20518;-74
2021/12/03 04:09:13;;;;;;;2.53;2.10;;;;;;;-9.28;89.30;99001.47;5035512;28;20045;-74
2021/12/03 04:11:39;;;;;;;3.20;2.58;;;;;;;-9.28;89.38;99017.41;5052129;28;20086;-75
2021/12/03 04:14:05;;;;;;;3.75;1.75;;;;;;;-9.28;89.64;99023.53;5051414;28;20067;-75
2021/12/03 04:16:31;;;;;;;3.70;2.40;;;;;;;-9.26;89.56;99032.13;5068107;28;20044;-75
2021/12/03 04:18:58;;;;;;;3.05;2.60;;;;;;;-9.26;89.45;99021.50;5051723;28;20079;-75
2021/12/03 04:21:23;;;;;;;2.53;1.90;;;;;;;-9.24;89.18;99021.31;5051464;28;20033;-74
2021/12/03 04:23:49;;;;;;;4.03;2.17;;;;;;;-9.25;89.03;99017.00;5051313;28;20174;-77
2021/12/03 04:26:15;;;;;;;3.13;2.35;;;;;;;-9.25;88.95;99022.31;5055153;28;20045;-76
2021/12/03 04:28:40;;;;;;;3.22;2.25;;;;;;;-9.28;88.92;99020.06;5052531;28;20083;-74
2021/12/03 04:31:06;;;;;;;4.80;2.67;;;;;;;-9.27;88.71;99014.56;5050844;28;20040;-75
2021/12/03 04:33:31;;;;;;;3.13;2.13;;;;;;;-9.25;88.60;99022.31;5051850;28;20037;-74
2021/12/03 04:35:57;;;;;;;3.38;2.40;;;;;;;-9.27;88.57;99019.03;5051097;28;20047;-73
2021/12/03 04:38:23;;;;;;;2.88;2.10;;;;;;;-9.29;88.53;99031.69;5051259;28;20049;-75
2021/12/03 04:40:49;;;;;;;5.63;2.72;;;;;;;-9.33;88.59;99023.31;5057285;28;20115;-74
2021/12/03 04:43:15;;;;;;;3.90;2.70;;;;;;;-9.32;88.38;99029.44;5045533;28;20075;-73
2021/12/03 04:45:40;;;;;;;2.78;1.80;;;;;;;-9.36;88.39;99028.19;5052892;28;20530;-74
2021/12/03 04:48:07;;;;;;;2.80;1.88;;;;;;;-9.38;88.30;99028.34;5045261;28;20094;-72
2021/12/03 04:50:38;;;;;;;3.63;2.40;;;;;;;-9.42;88.29;99038.53;5051527;28;20420;-72
2021/12/03 04:53:04;;;;;;;3.35;1.95;;;;;;;-9.42;88.19;99043.84;5021856;28;20025;-72
2021/12/03 04:55:30;;;;;;;6.20;2.50;;;;;;;-9.44;88.24;99047.72;5051930;28;20048;-72
2021/12/03 04:57:56;;;;;;;3.13;2.00;;;;;;;-9.47;88.34;99040.13;5051448;28;20039;-72
2021/12/03 05:00:29;;;;;;;5.30;2.72;;;;;;;-9.47;88.41;99045.44;5051630;28;20029;-72
2021/12/03 05:02:56;;;;;;;4.78;2.55;;;;;;;-9.47;88.36;99034.81;5030556;28;20753;-72
2021/12/03 05:05:24;;;;;;;3.15;2.05;;;;;;;-9.49;88.16;99050.94;5044178;28;20041;-72
2021/12/03 05:07:58;;;;;;;4.25;2.42;;;;;;;-9.53;88.19;99052.34;5050521;28;20086;-73
2021/12/03 05:10:29;;;;;;;4.53;2.40;;;;;;;-9.54;88.37;99052.53;5050172;28;20037;-72
2021/12/03 05:12:57;;;;;;;4.93;2.20;;;;;;;-9.56;88.32;99055.38;5049914;28;20048;-73
2021/12/03 05:15:23;;;;;;;5.07;2.72;;;;;;;-9.60;88.32;99058.59;5049989;28;20128;-72
2021/12/03 05:17:49;;;;;;;6.18;2.80;;;;;;;-9.61;88.20;99049.81;5050689;28;20033;-72
2021/12/03 05:20:15;;;;;;;4.00;2.25;;;;;;;-9.63;88.30;99059.81;5051954;28;20045;-72
2021/12/03 05:22:41;;;;;;;2.63;2.30;;;;;;;-9.63;88.36;99053.69;5051652;28;20037;-72
2021/12/03 05:25:08;;;;;;;5.75;2.63;;;;;;;-9.65;88.07;99045.91;5051611;28;20032;-72
2021/12/03 05:27:33;;;;;;;6.10;2.22;;;;;;;-9.67;88.18;99050.59;5033364;28;20045;-73
2021/12/03 05:29:59;;;;;;;3.63;2.63;;;;;;;-9.72;88.18;99052.97;5050277;28;20068;-72
2021/12/03 05:32:25;;;;;;;4.18;2.15;;;;;;;-9.78;88.18;99057.22;5051369;28;20085;-72
2021/12/03 05:34:50;;;;;;;3.70;3.05;;;;;;;-9.81;88.33;99056.78;5066859;28;20067;-72
2021/12/03 05:37:16;;;;;;;3.80;2.17;;;;;;;-9.83;88.30;99056.16;5050066;28;20492;-72
2021/12/03 05:39:41;;;;;;;5.07;2.92;;;;;;;-9.84;88.27;99062.47;5051377;28;20044;-72
2021/12/03 05:42:07;;;;;;;4.60;3.15;;;;;;;-9.86;88.32;99067.16;5051518;28;20660;-72
2021/12/03 05:44:35;;;;;;;3.42;2.30;;;;;;;-9.86;88.32;99067.97;5050341;28;20557;-73
2021/12/03 05:47:01;;;;;;;4.60;2.53;;;;;;;-9.85;88.26;99068.78;5051289;28;20048;-73
2021/12/03 05:49:27;;;;;;;5.63;3.10;;;;;;;-9.87;88.35;99073.47;5050830;28;20045;-73
2021/12/03 05:51:53;;;;;;;2.58;1.58;;;;;;;-9.90;88.41;99069.31;5051272;28;20040;-73
2021/12/03 05:54:20;;;;;;;3.78;2.22;;;;;;;-9.88;88.40;99070.00;5049781;28;20073;-73
2021/12/03 05:56:45;;;;;;;3.65;2.67;;;;;;;-9.88;88.55;99077.94;5050124;28;20033;-73
2021/12/03 05:59:11;;;;;;;3.33;2.70;;;;;;;-9.85;88.51;99090.84;5066541;28;20094;-73
2021/12/03 06:01:37;;;;;;;3.33;2.58;;;;;;;-9.85;88.55;99082.06;5051049;28;20052;-73
2021/12/03 06:04:02;;;;;;;3.90;2.75;;;;;;;-9.83;88.67;99078.19;5050112;28;20040;-73
2021/12/03 06:06:28;;;;;;;4.32;2.83;;;;;;;-9.79;88.54;99073.31;5050958;28;20033;-73
2021/12/03 06:08:54;;;;;;;2.78;1.83;;;;;;;-9.78;88.55;99074.97;5050908;28;20041;-72
2021/12/03 06:11:20;;;;;;;3.65;2.08;;;;;;;-9.74;88.62;99077.03;5049765;28;20041;-71
2021/12/03 06:13:45;;;;;;;3.47;2.47;;;;;;;-9.67;88.69;99087.75;5050396;28;20051;-72
2021/12/03 06:16:12;;;;;;;3.55;1.90;;;;;;;-9.60;88.64;99071.88;5033064;28;20037;-72
2021/12/03 06:18:38;;;;;;;3.13;2.53;;;;;;;-9.55;88.63;99078.25;5033150;28;20051;-73
2021/12/03 06:21:06;;;;;;;4.90;2.45;;;;;;;-9.50;88.67;99073.22;5049477;28;20067;-73
2021/12/03 06:23:31;;;;;;;3.33;2.10;;;;;;;-9.47;88.52;99085.28;5048789;28;20094;-73
2021/12/03 06:25:58;;;;;;;3.35;2.55;;;;;;;-9.44;88.25;99095.50;5050741;28;20036;-73
2021/12/03 06:28:25;;;;;;;4.90;2.75;;;;;;;-9.42;88.27;99104.09;5065972;28;20040;-73
2021/12/03 06:30:51;;;;;;;3.60;2.60;;;;;;;-9.40;88.00;99085.31;5033003;28;20033;-73
2021/12/03 06:33:19;;;;;;;3.88;2.67;;;;;;;-9.40;87.97;99094.09;5048980;28;20072;-73
2021/12/03 06:35:46;;;;;;;1.92;1.65;;;;;;;-9.37;87.92;99076.97;5044973;28;20470;-73
2021/12/03 06:38:11;;;;;;;3.75;2.10;;;;;;;-9.33;87.75;99078.25;5050444;28;20045;-74
2021/12/03 06:40:37;;;;;;;4.70;2.20;;;;;;;-9.32;87.59;99083.38;5050078;28;20033;-73
2021/12/03 06:43:03;;;;;;;3.13;2.28;;;;;;;-9.33;87.31;99084.38;5050543;28;20037;-73
2021/12/03 06:45:28;;;;;;;2.72;2.00;;;;;;;-9.36;87.19;99084.78;5050462;28;20045;-73
2021/12/03 06:47:54;;;;;;;2.95;1.95;;;;;;;-9.42;87.27;99081.03;5049364;28;20040;-71
2021/12/03 06:50:20;;;;;;;3.20;2.38;;;;;;;-9.45;87.43;99085.91;5049036;28;20045;-74
2021/12/03 06:52:49;;;;;;;2.30;2.10;;;;;;;-9.45;87.16;99092.03;5050301;28;20033;-73
2021/12/03 06:55:15;;;;;;;2.40;1.45;;;;;;;-9.42;87.04;99090.81;5050043;28;20037;-73
2021/12/03 06:57:44;;;;;;;4.70;2.30;;;;;;;-9.43;87.00;99089.19;5066113;28;20041;-73
2021/12/03 07:00:12;;;;;;;2.95;2.38;;;;;;;-9.45;87.09;99092.03;5066114;28;20044;-73
2021/12/03 07:02:38;;;;;;;3.75;2.42;;;;;;;-9.44;87.12;99103.47;5050263;28;20032;-74
2021/12/03 07:05:05;;;;;;;3.13;2.47;;;;;;;-9.46;87.30;99085.09;5048651;28;20036;-73
2021/12/03 07:07:31;;;;;;;2.83;2.22;;;;;;;-9.45;87.29;99089.38;5048402;28;20056;-73
2021/12/03 07:09:57;;;;;;;2.35;1.80;;;;;;;-9.43;87.31;99083.88;5048771;28;20537;-73
2021/12/03 07:12:22;;;;;;;2.33;1.70;;;;;;;-9.39;87.38;99089.63;5048503;28;20147;-72
2021/12/03 07:14:48;;;;;;;3.97;2.30;;;;;;;-9.37;87.11;99099.06;5035748;28;20044;-72
2021/12/03 07:17:14;;;;;;;2.72;1.80;;;;;;;-9.34;87.12;99090.72;5050357;28;20052;-72
2021/12/03 07:19:39;;;;;;;6.25;2.42;;;;;;;-9.33;87.04;99083.56;5065954;28;20135;-72
2021/12/03 07:22:06;;;;;;;3.25;2.05;;;;;;;-9.32;87.04;99079.91;5048955;28;20507;-72
2021/12/03 07:24:33;;;;;;;3.13;2.30;;;;;;;-9.33;87.17;99084.38;5050116;28;20094;-72
2021/12/03 07:26:59;;;;;;;3.28;2.45;;;;;;;-9.28;87.16;99087.28;5048795;28;20037;-72
2021/12/03 07:29:25;;;;;;;3.55;2.13;;;;;;;-9.25;87.10;99094.03;5048886;28;20055;-72
2021/12/03 07:31:51;;;;;;;1.20;1.10;;;;;;;-9.24;86.83;99083.22;5032170;28;20061;-72
2021/12/03 07:34:17;;;;;;;5.47;2.63;;;;;;;-9.23;86.92;99076.88;5053156;28;20037;-72
2021/12/03 07:36:42;;;;;;;5.03;3.10;;;;;;;-9.23;87.03;99105.28;5035915;28;20051;-72
2021/12/03 07:39:08;;;;;;;6.53;2.42;;;;;;;-9.23;87.06;99092.81;5052173;28;20029;-73
2021/12/03 07:41:36;;;;;;;3.05;2.08;;;;;;;-9.21;87.20;99093.44;5053153;28;20055;-74
2021/12/03 07:44:03;;;;;;;3.33;2.45;;;;;;;-9.20;87.27;99088.97;5052382;28;20033;-73
2021/12/03 07:46:28;;;;;;;3.90;1.90;;;;;;;-9.20;87.33;99083.66;5053517;28;20419;-74
2021/12/03 07:48:54;;;;;;;3.30;2.10;;;;;;;-9.20;87.48;99088.97;5052360;28;20525;-73
2021/12/03 07:51:19;;;;;;;5.25;2.47;;;;;;;-9.18;87.43;99082.47;5053340;28;20041;-73
2021/12/03 07:53:45;;;;;;;4.18;2.40;;;;;;;-9.15;87.32;99081.25;5052232;28;20119;-73
2021/12/03 07:56:11;;;;;;;4.68;3.05;;;;;;;-9.17;87.45;99083.28;5053456;28;20106;-73
2021/12/03 07:58:37;;;;;;;4.97;2.97;;;;;;;-9.17;87.51;99094.72;5053315;28;20483;-73
2021/12/03 08:01:03;;;;;;;4.45;2.17;;;;;;;-9.17;87.59;99088.59;5053519;28;20033;-73
2021/12/03 08:03:29;;;;;;;4.97;2.70;;;;;;;-9.19;87.55;99091.44;5035336;28;20072;-73
2021/12/03 08:05:55;;;;;;;4.07;3.10;;;;;;;-9.16;87.64;99098.22;5053237;28;20118;-73
2021/12/03 08:08:26;;;;;;;4.63;3.00;;;;;;;-9.17;87.58;99115.16;5033332;28;20141;-73
2021/12/03 08:10:52;;;;;;;3.22;2.20;;;;;;;-9.16;87.70;99100.88;5053076;28;20040;-73
2021/12/03 08:13:18;;;;;;;4.80;2.90;;;;;;;-9.14;87.64;99109.47;5052949;28;20118;-73
2021/12/03 08:15:44;;;;;;;7.82;2.42;;;;;;;-9.16;87.86;99111.50;5051555;28;20132;-73
2021/12/03 08:18:10;;;;;;;4.80;2.80;;;;;;;-9.13;87.76;99121.72;5052983;28;20135;-73
2021/12/03 08:20:35;;;;;;;4.15;2.70;;;;;;;-9.13;87.78;99113.75;5034880;28;20036;-73
2021/12/03 08:23:01;;;;;;;4.75;2.88;;;;;;;-9.09;87.89;99108.88;5052862;28;20475;-73
2021/12/03 08:25:28;;;;;;;3.15;2.17;;;;;;;-9.07;87.69;99128.09;5052883;28;20118;-73
2021/12/03 08:27:54;;;;;;;2.78;1.45;;;;;;;-9.03;87.85;99116.06;5052785;28;20049;-73
2021/12/03 08:30:20;;;;;;;4.72;2.88;;;;;;;-9.01;88.14;99128.19;5052537;28;20094;-73
2021/12/03 08:32:45;;;;;;;5.50;2.70;;;;;;;-9.00;87.72;99140.44;5051304;28;20037;-73
2021/12/03 08:35:17;;;;;;;2.72;2.17;;;;;;;-8.99;87.78;99112.84;5065878;28;20044;-73
2021/12/03 08:37:48;;;;;;;4.53;2.83;;;;;;;-8.96;87.90;99122.28;5052490;28;20036;-73
2021/12/03 08:40:14;;;;;;;4.85;2.17;;;;;;;-8.94;87.97;99114.94;5039574;28;20048;-73
2021/12/03 08:42:40;;;;;;;3.50;2.33;;;;;;;-8.92;87.91;99112.91;5051245;28;20032;-73
2021/12/03 08:45:06;;;;;;;5.93;2.92;;;;;;;-8.93;87.89;99101.44;5052358;28;20032;-73
2021/12/03 08:47:33;;;;;;;4.47;2.85;;;;;;;-8.93;87.98;99103.28;5051662;28;20095;-73
2021/12/03 08:50:00;;;;;;;5.28;3.10;;;;;;;-8.94;87.99;99109.63;5052474;28;20040;-73
2021/12/03 08:52:34;;;;;;;5.03;2.58;;;;;;;-8.97;88.10;99097.53;5052264;28;20103;-73
2021/12/03 08:55:00;;;;;;;4.15;2.97;;;;;;;-8.96;88.22;99087.72;5052112;28;20036;-73
2021/12/03 08:57:26;;;;;;;9.25;3.00;;;;;;;-8.98;88.33;99082.63;5067443;28;20041;-73
2021/12/03 08:59:54;;;;;;;4.70;2.65;;;;;;;-8.95;88.29;99084.06;5052141;28;20068;-73
2021/12/03 09:02:21;;;;;;;4.55;3.20;;;;;;;-8.96;88.45;99093.88;5049326;28;20472;-73
2021/12/03 09:04:47;;;;;;;7.00;3.00;;;;;;;-8.95;88.50;99090.19;5052449;28;20037;-73
2021/12/03 09:07:13;;;;;;;6.25;3.63;;;;;;;-8.95;88.56;99092.84;5049831;28;20059;-72
2021/12/03 09:09:39;;;;;;;2.78;1.50;;;;;;;-8.94;88.74;99083.84;5050932;28;20029;-73
2021/12/03 09:12:05;;;;;;;1.73;1.27;;;;;;;-8.92;88.69;99092.47;5082968;28;20044;-70
2021/12/03 09:20:00;;;;;;;1.90;1.50;;;;;;;-8.86;89.10;99078.38;5051505;28;20124;-68
2021/12/03 09:22:34;;;;;;;8.50;1.40;;;;;;;-8.84;89.09;99073.72;5079419;28;20044;-68
2021/12/03 09:25:01;;;;;;;1.90;1.48;;;;;;;-8.79;89.27;99085.59;5050413;28;20037;-69
2021/12/03 09:27:27;;;;;;;1.38;1.15;;;;;;;-8.78;89.15;99045.53;5049362;28;20522;-69
2021/12/03 09:29:55;;;;;;;2.78;1.88;;;;;;;-8.75;89.02;99074.38;5051384;28;20045;-67
2021/12/03 09:32:28;;;;;;;2.42;1.70;;;;;;;-8.71;89.14;99050.88;5047169;28;20043;-68
2021/12/03 09:34:55;;;;;;;2.47;1.27;;;;;;;-8.68;89.30;99082.38;5044789;28;20044;-69
2021/12/03 09:37:21;;;;;;;5.85;2.45;;;;;;;-8.65;89.21;99069.53;5033346;28;20419;-68
2021/12/03 09:39:47;;;;;;;1.80;1.13;;;;;;;-8.61;89.07;99088.56;5033313;28;20039;-70
2021/12/03 09:42:18;;;;;;;15.57;1.92;;;;;;;-8.57;88.99;99073.84;5051179;28;20036;-69
2021/12/03 09:44:46;;;;;;;0.88;0.70;;;;;;;-8.56;88.98;99059.53;5051335;28;20534;-68
2021/12/03 09:47:15;;;;;;;2.25;1.70;;;;;;;-8.51;88.80;99070.41;5057607;28;20043;-69
2021/12/03 09:49:42;;;;;;;;;;;;;;;-8.48;88.57;99064.72;5057581;28;20041;-72
2021/12/03 09:54:44;;;;;;;3.90;2.03;;;;;;;-8.42;88.39;99049.78;5035088;28;20124;-69
2021/12/03 09:57:42;;;;;;;2.70;1.48;;;;;;;-8.39;88.38;99036.91;5051523;28;20077;-69
2021/12/03 10:00:21;;;;;;;2.85;1.80;;;;;;;-8.38;88.44;99041.22;5034638;28;20106;-68
2021/12/03 10:11:44;;;;;;;2.65;1.60;;;;;;;-8.37;88.56;99028.72;5045055;28;20052;-68
2021/12/03 10:18:47;;;;;;;3.65;1.45;;;;;;;-8.31;88.82;99015.44;5072765;28;20411;-69
2021/12/03 10:37:49;;;;;;;1.33;1.23;;;;;;;-8.00;88.59;99006.09;5048512;28;20048;-69
2021/12/03 10:43:13;;;;;;;3.03;1.83;;;;;;;-7.96;88.77;99004.69;5048378;28;20040;-69
2021/12/03 10:46:02;;;;;;;0.28;0.28;;;;;;;-7.92;88.63;98998.75;5048403;28;20116;-69
2021/12/03 10:48:43;;;;;;;2.50;1.42;;;;;;;-7.88;88.85;98985.84;5047763;28;20045;-69
2021/12/03 11:29:57;;;;;;;0.75;0.75;;;;;;;-7.28;88.02;98962.72;5028564;28;20733;-81
2021/12/03 11:38:19;;;;;;;2.15;1.42;;;;;;;-7.27;88.01;98959.00;5052436;28;20518;-81
2021/12/03 12:13:22;;;;;;;2.00;0.98;;;;;;;-6.97;87.53;98937.19;5052229;28;20411;-81
2021/12/03 12:42:24;;;;;;;0.55;0.55;;;;;;;-6.69;88.96;98917.19;5049980;28;20785;-83
2021/12/03 13:22:31;;;;;;;3.38;1.98;;;;;;;-6.36;91.10;98905.53;5045725;28;20094;-77
2021/12/03 14:08:02;;;;;;;2.47;1.30;;;;;;;-6.17;92.55;98879.75;5076331;28;20510;-75
2021/12/03 14:38:08;;;;;;;2.67;1.60;;;;;;;-6.08;93.01;98884.59;5065743;28;20518;-71
2021/12/03 14:57:58;;;;;;;1.50;0.93;;;;;;;-5.96;93.22;98866.03;5037757;28;20071;-73
2021/12/03 15:08:17;;;;;;;0.95;0.65;;;;;;;-5.91;93.31;98868.84;5044655;28;20044;-71
2021/12/03 15:14:08;;;;;;;0.70;0.70;;;;;;;-5.87;93.26;98869.22;5049402;28;20453;-73
2021/12/03 15:27:02;;;;;;;4.15;2.28;;;;;;;-5.85;93.26;98884.00;5045588;28;20040;-72
2021/12/03 15:29:51;;;;;;;3.28;2.50;;;;;;;-5.85;93.18;98889.31;5048578;28;20147;-73
2021/12/03 15:32:30;;;;;;;2.08;1.33;;;;;;;-5.85;93.08;98878.66;5054077;28;20037;-72
2021/12/03 15:35:16;;;;;;;3.35;1.60;;;;;;;-5.84;93.02;98890.16;5050148;28;20495;-72
2021/12/03 15:54:27;;;;;;;3.08;2.28;;;;;;;-5.90;92.72;98902.56;5062414;28;20582;-79
2021/12/03 15:56:39;;;;;;;3.80;1.77;;;;;;;-5.92;92.58;98888.56;5063347;28;20127;-78
2021/12/03 16:04:38;;;;;;;3.80;1.27;;;;;;;-5.94;92.67;98906.69;5052292;28;20025;-76
2021/12/03 16:20:34;;;;;;;3.17;1.23;;;;;;;-6.03;92.98;98897.31;5054778;28;20509;-72
2021/12/03 16:23:15;;;;;;;3.25;1.92;;;;;;;-6.02;93.04;98898.13;5050927;28;20033;-76
2021/12/03 16:47:04;;;;;;;2.20;1.70;;;;;;;-6.20;92.69;98898.88;5064871;28;20078;-73
2021/12/03 16:52:14;;;;;;;1.23;1.13;;;;;;;-6.28;92.62;98907.13;5048780;28;20045;-73
2021/12/03 16:54:43;;;;;;;3.30;2.08;;;;;;;-6.30;92.34;98896.66;5049219;28;20033;-73
2021/12/03 16:57:11;;;;;;;2.25;1.70;;;;;;;-6.33;92.26;98906.94;5048701;28;20045;-73
2021/12/03 16:59:39;;;;;;;2.65;1.45;;;;;;;-6.34;92.20;98895.47;5051821;28;20063;-72
2021/12/03 17:02:13;;;;;;;1.75;1.30;;;;;;;-6.35;92.15;98877.00;5041558;28;20187;-72
2021/12/03 17:15:13;;;;;;;2.05;1.25;;;;;;;-6.40;92.02;98883.81;5064860;28;20056;-73
2021/12/03 17:23:38;;;;;;;0.80;0.80;;;;;;;-6.43;91.63;98905.56;5066599;28;20033;-73
2021/12/03 17:50:56;;;;;;;2.80;1.45;;;;;;;-6.57;90.85;98914.69;5045009;28;20030;-75
2021/12/03 17:53:05;;;;;;;1.73;1.23;;;;;;;-6.56;90.90;98902.16;5043028;28;20044;-76
2021/12/03 17:56:16;;;;;;;2.65;2.13;;;;;;;-6.59;90.82;98897.25;5050787;28;20086;-75
2021/12/03 18:01:14;;;;;;;2.45;1.58;;;;;;;-6.58;90.76;98907.72;5048765;28;20086;-74
2021/12/03 18:56:56;;;;;;;2.75;1.60;;;;;;;-6.63;90.34;98950.19;5047906;28;20677;-77
2021/12/03 18:59:25;;;;;;;2.90;2.22;;;;;;;-6.62;90.21;98978.50;5044613;28;20041;-78